sensor_id;sensor_type;location;lat;lon;timestamp;P1;durP1;ratioP1;P2;durP2;ratioP2
10471;SDS011;5283;48.876;8.962;2023-01-04T00:00:51;25.27;;;19.00;;
10471;SDS011;5283;48.876;8.962;2023-01-04T00:03:17;25.00;;;19.80;;
10471;SDS011;5283;48.876;8.962;2023-01-04T00:05:44;24.50;;;19.73;;
10471;SDS011;5283;48.876;8.962;2023-01-04T00:08:11;25.60;;;19.27;;
10471;SDS011;5283;48.876;8.962;2023-01-04T00:10:37;25.47;;;19.63;;
10471;SDS011;5283;48.876;8.962;2023-01-04T00:13:04;29.67;;;20.43;;
10471;SDS011;5283;48.876;8.962;2023-01-04T00:15:31;28.33;;;19.50;;
10471;SDS011;5283;48.876;8.962;2023-01-04T00:17:57;26.83;;;19.63;;
10471;SDS011;5283;48.876;8.962;2023-01-04T00:20:27;27.67;;;20.17;;
10471;SDS011;5283;48.876;8.962;2023-01-04T00:22:54;26.03;;;19.03;;
10471;SDS011;5283;48.876;8.962;2023-01-04T00:25:21;27.67;;;20.33;;
10471;SDS011;5283;48.876;8.962;2023-01-04T00:27:49;25.90;;;19.70;;
10471;SDS011;5283;48.876;8.962;2023-01-04T00:30:16;25.57;;;19.37;;
10471;SDS011;5283;48.876;8.962;2023-01-04T00:32:44;28.20;;;20.40;;
10471;SDS011;5283;48.876;8.962;2023-01-04T00:35:10;27.33;;;19.43;;
10471;SDS011;5283;48.876;8.962;2023-01-04T00:37:43;27.30;;;19.27;;
10471;SDS011;5283;48.876;8.962;2023-01-04T00:40:12;24.50;;;19.00;;
10471;SDS011;5283;48.876;8.962;2023-01-04T00:42:38;25.97;;;18.60;;
10471;SDS011;5283;48.876;8.962;2023-01-04T00:45:05;23.70;;;18.70;;
10471;SDS011;5283;48.876;8.962;2023-01-04T00:47:32;24.50;;;17.97;;
10471;SDS011;5283;48.876;8.962;2023-01-04T00:49:59;26.03;;;19.10;;
10471;SDS011;5283;48.876;8.962;2023-01-04T00:52:26;29.17;;;18.97;;
10471;SDS011;5283;48.876;8.962;2023-01-04T00:54:53;27.13;;;18.63;;
10471;SDS011;5283;48.876;8.962;2023-01-04T00:57:19;29.07;;;19.40;;
10471;SDS011;5283;48.876;8.962;2023-01-04T00:59:46;26.97;;;19.50;;
10471;SDS011;5283;48.876;8.962;2023-01-04T01:02:13;28.87;;;19.47;;
10471;SDS011;5283;48.876;8.962;2023-01-04T01:04:39;28.53;;;19.70;;
10471;SDS011;5283;48.876;8.962;2023-01-04T01:07:06;29.70;;;20.23;;
10471;SDS011;5283;48.876;8.962;2023-01-04T01:09:33;29.90;;;20.70;;
10471;SDS011;5283;48.876;8.962;2023-01-04T01:11:59;31.80;;;20.47;;
10471;SDS011;5283;48.876;8.962;2023-01-04T01:14:26;29.27;;;20.00;;
10471;SDS011;5283;48.876;8.962;2023-01-04T01:16:53;27.97;;;20.83;;
10471;SDS011;5283;48.876;8.962;2023-01-04T01:19:22;26.93;;;20.03;;
10471;SDS011;5283;48.876;8.962;2023-01-04T01:21:49;27.63;;;20.10;;
10471;SDS011;5283;48.876;8.962;2023-01-04T01:24:16;25.80;;;18.80;;
10471;SDS011;5283;48.876;8.962;2023-01-04T01:26:44;27.80;;;19.53;;
10471;SDS011;5283;48.876;8.962;2023-01-04T01:29:11;29.67;;;19.23;;
10471;SDS011;5283;48.876;8.962;2023-01-04T01:31:38;30.67;;;19.20;;
10471;SDS011;5283;48.876;8.962;2023-01-04T01:34:05;27.10;;;18.80;;
10471;SDS011;5283;48.876;8.962;2023-01-04T01:36:32;30.60;;;19.10;;
10471;SDS011;5283;48.876;8.962;2023-01-04T01:38:59;29.27;;;19.27;;
10471;SDS011;5283;48.876;8.962;2023-01-04T01:41:27;29.70;;;18.37;;
10471;SDS011;5283;48.876;8.962;2023-01-04T01:44:03;28.00;;;18.33;;
10471;SDS011;5283;48.876;8.962;2023-01-04T01:46:51;27.17;;;18.23;;
10471;SDS011;5283;48.876;8.962;2023-01-04T01:49:27;28.27;;;18.03;;
10471;SDS011;5283;48.876;8.962;2023-01-04T01:52:01;27.43;;;17.83;;
10471;SDS011;5283;48.876;8.962;2023-01-04T01:54:32;27.20;;;17.50;;
10471;SDS011;5283;48.876;8.962;2023-01-04T01:57:02;26.20;;;18.30;;
10471;SDS011;5283;48.876;8.962;2023-01-04T01:59:32;28.07;;;18.73;;
10471;SDS011;5283;48.876;8.962;2023-01-04T02:02:01;29.27;;;18.57;;
10471;SDS011;5283;48.876;8.962;2023-01-04T02:04:28;29.93;;;19.33;;
10471;SDS011;5283;48.876;8.962;2023-01-04T02:06:55;29.20;;;18.17;;
10471;SDS011;5283;48.876;8.962;2023-01-04T02:09:23;32.33;;;19.77;;
10471;SDS011;5283;48.876;8.962;2023-01-04T02:11:51;33.87;;;19.77;;
10471;SDS011;5283;48.876;8.962;2023-01-04T02:14:17;33.87;;;19.30;;
10471;SDS011;5283;48.876;8.962;2023-01-04T02:22:28;33.50;;;18.47;;
10471;SDS011;5283;48.876;8.962;2023-01-04T02:31:19;30.87;;;17.63;;
10471;SDS011;5283;48.876;8.962;2023-01-04T02:33:59;27.00;;;15.97;;
10471;SDS011;5283;48.876;8.962;2023-01-04T02:45:33;27.73;;;16.70;;
10471;SDS011;5283;48.876;8.962;2023-01-04T02:48:05;27.57;;;16.23;;
10471;SDS011;5283;48.876;8.962;2023-01-04T02:50:57;26.83;;;16.03;;
10471;SDS011;5283;48.876;8.962;2023-01-04T02:53:29;26.83;;;15.73;;
10471;SDS011;5283;48.876;8.962;2023-01-04T03:05:09;25.53;;;14.80;;
10471;SDS011;5283;48.876;8.962;2023-01-04T03:10:45;24.90;;;15.23;;
10471;SDS011;5283;48.876;8.962;2023-01-04T03:15:53;22.43;;;13.53;;
10471;SDS011;5283;48.876;8.962;2023-01-04T03:18:28;22.97;;;14.37;;
10471;SDS011;5283;48.876;8.962;2023-01-04T03:21:01;23.97;;;14.43;;
10471;SDS011;5283;48.876;8.962;2023-01-04T03:23:31;27.80;;;14.27;;
10471;SDS011;5283;48.876;8.962;2023-01-04T03:26:20;21.97;;;13.30;;
10471;SDS011;5283;48.876;8.962;2023-01-04T03:29:17;21.73;;;13.23;;
10471;SDS011;5283;48.876;8.962;2023-01-04T03:32:27;24.03;;;14.57;;
10471;SDS011;5283;48.876;8.962;2023-01-04T03:35:19;21.33;;;13.20;;
10471;SDS011;5283;48.876;8.962;2023-01-04T03:38:08;20.10;;;13.17;;
10471;SDS011;5283;48.876;8.962;2023-01-04T03:40:59;20.20;;;13.47;;
10471;SDS011;5283;48.876;8.962;2023-01-04T03:47:05;16.03;;;11.53;;
10471;SDS011;5283;48.876;8.962;2023-01-04T03:49:55;19.23;;;11.30;;
10471;SDS011;5283;48.876;8.962;2023-01-04T03:52:30;17.87;;;11.73;;
10471;SDS011;5283;48.876;8.962;2023-01-04T03:54:59;17.30;;;11.07;;
10471;SDS011;5283;48.876;8.962;2023-01-04T03:57:28;15.40;;;10.13;;
10471;SDS011;5283;48.876;8.962;2023-01-04T04:00:01;14.13;;;10.90;;
10471;SDS011;5283;48.876;8.962;2023-01-04T04:02:34;14.63;;;10.00;;
10471;SDS011;5283;48.876;8.962;2023-01-04T04:05:02;14.37;;;10.00;;
10471;SDS011;5283;48.876;8.962;2023-01-04T04:07:47;12.57;;;8.93;;
10471;SDS011;5283;48.876;8.962;2023-01-04T04:10:33;12.93;;;8.70;;
10471;SDS011;5283;48.876;8.962;2023-01-04T04:13:00;12.87;;;8.77;;
10471;SDS011;5283;48.876;8.962;2023-01-04T04:15:27;12.67;;;8.63;;
10471;SDS011;5283;48.876;8.962;2023-01-04T04:17:53;10.70;;;7.77;;
10471;SDS011;5283;48.876;8.962;2023-01-04T04:20:20;11.27;;;7.83;;
10471;SDS011;5283;48.876;8.962;2023-01-04T04:22:47;10.17;;;7.63;;
10471;SDS011;5283;48.876;8.962;2023-01-04T04:25:14;9.93;;;7.20;;
10471;SDS011;5283;48.876;8.962;2023-01-04T04:27:40;8.40;;;5.83;;
10471;SDS011;5283;48.876;8.962;2023-01-04T04:30:07;8.90;;;5.87;;
10471;SDS011;5283;48.876;8.962;2023-01-04T04:32:34;9.13;;;6.00;;
10471;SDS011;5283;48.876;8.962;2023-01-04T04:35:01;7.57;;;5.60;;
10471;SDS011;5283;48.876;8.962;2023-01-04T04:37:27;9.03;;;5.93;;
10471;SDS011;5283;48.876;8.962;2023-01-04T04:39:57;7.90;;;5.80;;
10471;SDS011;5283;48.876;8.962;2023-01-04T04:42:24;7.30;;;5.57;;
10471;SDS011;5283;48.876;8.962;2023-01-04T04:44:50;6.97;;;5.60;;
10471;SDS011;5283;48.876;8.962;2023-01-04T04:47:17;6.57;;;5.03;;
10471;SDS011;5283;48.876;8.962;2023-01-04T04:49:44;6.43;;;5.00;;
10471;SDS011;5283;48.876;8.962;2023-01-04T04:52:10;6.37;;;5.00;;
10471;SDS011;5283;48.876;8.962;2023-01-04T04:54:37;5.93;;;5.10;;
10471;SDS011;5283;48.876;8.962;2023-01-04T04:57:04;8.63;;;5.40;;
10471;SDS011;5283;48.876;8.962;2023-01-04T04:59:31;6.80;;;4.70;;
10471;SDS011;5283;48.876;8.962;2023-01-04T05:01:58;6.23;;;4.70;;
10471;SDS011;5283;48.876;8.962;2023-01-04T05:04:24;6.50;;;4.80;;
10471;SDS011;5283;48.876;8.962;2023-01-04T05:06:51;5.33;;;4.43;;
10471;SDS011;5283;48.876;8.962;2023-01-04T05:09:18;5.37;;;4.30;;
10471;SDS011;5283;48.876;8.962;2023-01-04T05:11:44;4.37;;;3.70;;
10471;SDS011;5283;48.876;8.962;2023-01-04T05:14:30;3.60;;;3.30;;
10471;SDS011;5283;48.876;8.962;2023-01-04T05:16:56;4.00;;;3.60;;
10471;SDS011;5283;48.876;8.962;2023-01-04T05:19:23;4.27;;;3.20;;
10471;SDS011;5283;48.876;8.962;2023-01-04T05:21:50;3.07;;;2.77;;
10471;SDS011;5283;48.876;8.962;2023-01-04T05:24:17;2.80;;;2.60;;
10471;SDS011;5283;48.876;8.962;2023-01-04T05:26:43;2.33;;;2.10;;
10471;SDS011;5283;48.876;8.962;2023-01-04T05:29:10;2.33;;;2.10;;
10471;SDS011;5283;48.876;8.962;2023-01-04T05:31:56;2.30;;;2.10;;
10471;SDS011;5283;48.876;8.962;2023-01-04T05:34:23;2.87;;;1.83;;
10471;SDS011;5283;48.876;8.962;2023-01-04T05:36:50;1.83;;;1.73;;
10471;SDS011;5283;48.876;8.962;2023-01-04T05:39:16;2.30;;;2.10;;
10471;SDS011;5283;48.876;8.962;2023-01-04T05:41:43;3.07;;;1.63;;
10471;SDS011;5283;48.876;8.962;2023-01-04T05:44:28;2.67;;;1.90;;
10471;SDS011;5283;48.876;8.962;2023-01-04T05:46:55;2.23;;;1.70;;
10471;SDS011;5283;48.876;8.962;2023-01-04T05:49:22;2.50;;;1.90;;
10471;SDS011;5283;48.876;8.962;2023-01-04T05:51:48;2.43;;;1.60;;
10471;SDS011;5283;48.876;8.962;2023-01-04T05:54:15;1.40;;;1.30;;
10471;SDS011;5283;48.876;8.962;2023-01-04T05:56:46;1.83;;;1.10;;
10471;SDS011;5283;48.876;8.962;2023-01-04T05:59:12;1.20;;;1.10;;
10471;SDS011;5283;48.876;8.962;2023-01-04T06:01:40;2.20;;;1.63;;
10471;SDS011;5283;48.876;8.962;2023-01-04T06:04:06;2.97;;;1.17;;
10471;SDS011;5283;48.876;8.962;2023-01-04T06:06:33;1.13;;;1.07;;
10471;SDS011;5283;48.876;8.962;2023-01-04T06:09:00;1.67;;;1.20;;
10471;SDS011;5283;48.876;8.962;2023-01-04T06:11:26;2.60;;;1.43;;
10471;SDS011;5283;48.876;8.962;2023-01-04T06:13:53;1.23;;;1.03;;
10471;SDS011;5283;48.876;8.962;2023-01-04T06:16:20;1.07;;;1.00;;
10471;SDS011;5283;48.876;8.962;2023-01-04T06:18:46;1.10;;;1.00;;
10471;SDS011;5283;48.876;8.962;2023-01-04T06:21:13;1.07;;;0.97;;
10471;SDS011;5283;48.876;8.962;2023-01-04T06:23:40;1.47;;;1.00;;
10471;SDS011;5283;48.876;8.962;2023-01-04T06:26:06;2.23;;;0.90;;
10471;SDS011;5283;48.876;8.962;2023-01-04T06:28:33;1.40;;;0.80;;
10471;SDS011;5283;48.876;8.962;2023-01-04T06:31:04;0.80;;;0.80;;
10471;SDS011;5283;48.876;8.962;2023-01-04T06:33:32;1.53;;;0.90;;
10471;SDS011;5283;48.876;8.962;2023-01-04T06:35:59;2.07;;;1.20;;
10471;SDS011;5283;48.876;8.962;2023-01-04T06:38:26;1.63;;;0.83;;
10471;SDS011;5283;48.876;8.962;2023-01-04T06:40:53;2.00;;;0.83;;
10471;SDS011;5283;48.876;8.962;2023-01-04T06:43:20;0.73;;;0.73;;
10471;SDS011;5283;48.876;8.962;2023-01-04T06:45:47;0.57;;;0.57;;
10471;SDS011;5283;48.876;8.962;2023-01-04T06:48:14;1.97;;;1.17;;
10471;SDS011;5283;48.876;8.962;2023-01-04T06:50:41;0.80;;;0.70;;
10471;SDS011;5283;48.876;8.962;2023-01-04T06:53:08;1.37;;;0.90;;
10471;SDS011;5283;48.876;8.962;2023-01-04T06:55:35;4.30;;;0.97;;
10471;SDS011;5283;48.876;8.962;2023-01-04T06:58:02;1.73;;;0.80;;
10471;SDS011;5283;48.876;8.962;2023-01-04T07:00:28;1.23;;;1.07;;
10471;SDS011;5283;48.876;8.962;2023-01-04T07:02:55;1.70;;;0.80;;
10471;SDS011;5283;48.876;8.962;2023-01-04T07:05:21;2.63;;;0.83;;
10471;SDS011;5283;48.876;8.962;2023-01-04T07:07:48;2.53;;;0.97;;
10471;SDS011;5283;48.876;8.962;2023-01-04T07:10:15;1.53;;;0.70;;
10471;SDS011;5283;48.876;8.962;2023-01-04T07:12:41;2.33;;;1.00;;
10471;SDS011;5283;48.876;8.962;2023-01-04T07:15:08;2.30;;;0.77;;
10471;SDS011;5283;48.876;8.962;2023-01-04T07:17:35;2.30;;;0.80;;
10471;SDS011;5283;48.876;8.962;2023-01-04T07:20:02;1.33;;;0.70;;
10471;SDS011;5283;48.876;8.962;2023-01-04T07:22:29;2.33;;;1.07;;
10471;SDS011;5283;48.876;8.962;2023-01-04T07:24:56;0.70;;;0.70;;
10471;SDS011;5283;48.876;8.962;2023-01-04T07:27:22;0.93;;;0.63;;
10471;SDS011;5283;48.876;8.962;2023-01-04T07:29:49;3.00;;;1.30;;
10471;SDS011;5283;48.876;8.962;2023-01-04T07:32:16;1.30;;;1.00;;
10471;SDS011;5283;48.876;8.962;2023-01-04T07:34:42;3.10;;;1.10;;
10471;SDS011;5283;48.876;8.962;2023-01-04T07:37:09;1.50;;;1.00;;
10471;SDS011;5283;48.876;8.962;2023-01-04T07:39:36;1.83;;;1.00;;
10471;SDS011;5283;48.876;8.962;2023-01-04T07:42:03;2.03;;;1.20;;
10471;SDS011;5283;48.876;8.962;2023-01-04T07:44:29;0.70;;;0.70;;
10471;SDS011;5283;48.876;8.962;2023-01-04T07:46:56;0.87;;;0.87;;
10471;SDS011;5283;48.876;8.962;2023-01-04T07:49:23;1.60;;;0.70;;
10471;SDS011;5283;48.876;8.962;2023-01-04T07:51:49;1.53;;;1.00;;
10471;SDS011;5283;48.876;8.962;2023-01-04T07:54:16;2.50;;;1.00;;
10471;SDS011;5283;48.876;8.962;2023-01-04T07:56:44;1.93;;;1.10;;
10471;SDS011;5283;48.876;8.962;2023-01-04T07:59:13;2.50;;;0.93;;
10471;SDS011;5283;48.876;8.962;2023-01-04T08:01:40;2.80;;;0.97;;
10471;SDS011;5283;48.876;8.962;2023-01-04T08:04:08;2.30;;;1.00;;
10471;SDS011;5283;48.876;8.962;2023-01-04T08:06:40;1.53;;;0.67;;
10471;SDS011;5283;48.876;8.962;2023-01-04T08:09:09;1.97;;;0.83;;
10471;SDS011;5283;48.876;8.962;2023-01-04T08:11:36;2.40;;;1.03;;
10471;SDS011;5283;48.876;8.962;2023-01-04T08:14:03;2.07;;;0.97;;
10471;SDS011;5283;48.876;8.962;2023-01-04T08:16:31;2.90;;;1.07;;
10471;SDS011;5283;48.876;8.962;2023-01-04T08:19:00;3.70;;;0.90;;
10471;SDS011;5283;48.876;8.962;2023-01-04T08:21:29;5.00;;;1.00;;
10471;SDS011;5283;48.876;8.962;2023-01-04T08:23:57;1.30;;;0.50;;
10471;SDS011;5283;48.876;8.962;2023-01-04T08:26:24;1.63;;;1.23;;
10471;SDS011;5283;48.876;8.962;2023-01-04T08:28:51;1.23;;;0.83;;
10471;SDS011;5283;48.876;8.962;2023-01-04T08:31:22;2.43;;;0.90;;
10471;SDS011;5283;48.876;8.962;2023-01-04T08:33:51;3.17;;;0.83;;
10471;SDS011;5283;48.876;8.962;2023-01-04T08:36:22;1.33;;;0.70;;
10471;SDS011;5283;48.876;8.962;2023-01-04T08:38:55;4.10;;;1.10;;
10471;SDS011;5283;48.876;8.962;2023-01-04T08:41:28;1.27;;;0.80;;
10471;SDS011;5283;48.876;8.962;2023-01-04T08:44:16;1.47;;;1.30;;
10471;SDS011;5283;48.876;8.962;2023-01-04T08:46:47;1.60;;;0.70;;
10471;SDS011;5283;48.876;8.962;2023-01-04T08:49:15;2.40;;;0.97;;
10471;SDS011;5283;48.876;8.962;2023-01-04T08:51:43;0.73;;;0.67;;
10471;SDS011;5283;48.876;8.962;2023-01-04T08:54:10;1.27;;;0.77;;
10471;SDS011;5283;48.876;8.962;2023-01-04T08:56:37;1.03;;;0.50;;
10471;SDS011;5283;48.876;8.962;2023-01-04T08:59:04;1.07;;;0.60;;
10471;SDS011;5283;48.876;8.962;2023-01-04T09:01:32;1.33;;;0.60;;
10471;SDS011;5283;48.876;8.962;2023-01-04T09:04:00;2.30;;;0.50;;
10471;SDS011;5283;48.876;8.962;2023-01-04T09:06:27;2.00;;;0.97;;
10471;SDS011;5283;48.876;8.962;2023-01-04T09:08:55;3.33;;;0.70;;
10471;SDS011;5283;48.876;8.962;2023-01-04T09:11:22;1.23;;;0.63;;
10471;SDS011;5283;48.876;8.962;2023-01-04T09:13:53;3.63;;;0.83;;
10471;SDS011;5283;48.876;8.962;2023-01-04T09:16:23;2.13;;;0.57;;
10471;SDS011;5283;48.876;8.962;2023-01-04T09:18:50;1.60;;;0.53;;
10471;SDS011;5283;48.876;8.962;2023-01-04T09:21:19;1.80;;;0.70;;
10471;SDS011;5283;48.876;8.962;2023-01-04T09:23:46;1.07;;;0.50;;
10471;SDS011;5283;48.876;8.962;2023-01-04T09:26:15;4.57;;;0.90;;
10471;SDS011;5283;48.876;8.962;2023-01-04T09:28:43;1.17;;;0.60;;
10471;SDS011;5283;48.876;8.962;2023-01-04T09:31:11;1.33;;;0.60;;
10471;SDS011;5283;48.876;8.962;2023-01-04T09:33:40;2.60;;;0.50;;
10471;SDS011;5283;48.876;8.962;2023-01-04T09:36:28;2.17;;;0.97;;
10471;SDS011;5283;48.876;8.962;2023-01-04T09:38:55;1.23;;;0.60;;
10471;SDS011;5283;48.876;8.962;2023-01-04T09:41:29;1.27;;;0.80;;
10471;SDS011;5283;48.876;8.962;2023-01-04T09:44:01;2.63;;;1.00;;
10471;SDS011;5283;48.876;8.962;2023-01-04T09:46:41;0.80;;;0.60;;
10471;SDS011;5283;48.876;8.962;2023-01-04T09:50:03;0.83;;;0.57;;
10471;SDS011;5283;48.876;8.962;2023-01-04T09:52:17;0.83;;;0.60;;
10471;SDS011;5283;48.876;8.962;2023-01-04T09:57:46;1.70;;;0.50;;
10471;SDS011;5283;48.876;8.962;2023-01-04T10:00:16;1.77;;;0.80;;
10471;SDS011;5283;48.876;8.962;2023-01-04T10:03:13;1.17;;;0.60;;
10471;SDS011;5283;48.876;8.962;2023-01-04T10:05:48;1.00;;;0.57;;
10471;SDS011;5283;48.876;8.962;2023-01-04T10:08:17;1.07;;;0.70;;
10471;SDS011;5283;48.876;8.962;2023-01-04T10:17:01;2.63;;;1.00;;
10471;SDS011;5283;48.876;8.962;2023-01-04T10:22:40;1.00;;;0.40;;
10471;SDS011;5283;48.876;8.962;2023-01-04T10:33:26;2.00;;;0.60;;
10471;SDS011;5283;48.876;8.962;2023-01-04T10:35:59;1.67;;;0.60;;
10471;SDS011;5283;48.876;8.962;2023-01-04T10:38:28;1.63;;;0.80;;
10471;SDS011;5283;48.876;8.962;2023-01-04T10:40:58;1.73;;;0.80;;
10471;SDS011;5283;48.876;8.962;2023-01-04T10:43:34;1.30;;;0.43;;
10471;SDS011;5283;48.876;8.962;2023-01-04T10:46:17;2.10;;;1.13;;
10471;SDS011;5283;48.876;8.962;2023-01-04T10:48:57;2.10;;;0.70;;
10471;SDS011;5283;48.876;8.962;2023-01-04T10:51:42;1.17;;;0.40;;
10471;SDS011;5283;48.876;8.962;2023-01-04T10:54:25;0.87;;;0.70;;
10471;SDS011;5283;48.876;8.962;2023-01-04T11:00:18;1.53;;;0.70;;
10471;SDS011;5283;48.876;8.962;2023-01-04T11:02:51;2.30;;;0.57;;
10471;SDS011;5283;48.876;8.962;2023-01-04T11:08:05;2.20;;;0.90;;
10471;SDS011;5283;48.876;8.962;2023-01-04T11:10:43;1.47;;;1.00;;
10471;SDS011;5283;48.876;8.962;2023-01-04T11:13:17;1.33;;;0.60;;
10471;SDS011;5283;48.876;8.962;2023-01-04T11:15:43;0.80;;;0.50;;
10471;SDS011;5283;48.876;8.962;2023-01-04T11:18:12;1.20;;;0.77;;
10471;SDS011;5283;48.876;8.962;2023-01-04T11:20:40;1.20;;;0.73;;
10471;SDS011;5283;48.876;8.962;2023-01-04T11:26:29;1.27;;;0.80;;
10471;SDS011;5283;48.876;8.962;2023-01-04T11:31:31;0.90;;;0.57;;
10471;SDS011;5283;48.876;8.962;2023-01-04T11:34:09;0.83;;;0.60;;
10471;SDS011;5283;48.876;8.962;2023-01-04T11:36:43;3.07;;;0.80;;
10471;SDS011;5283;48.876;8.962;2023-01-04T11:39:21;1.73;;;0.80;;
10471;SDS011;5283;48.876;8.962;2023-01-04T11:41:59;2.13;;;0.80;;
10471;SDS011;5283;48.876;8.962;2023-01-04T11:44:31;1.50;;;0.67;;
10471;SDS011;5283;48.876;8.962;2023-01-04T11:49:38;3.10;;;0.67;;
10471;SDS011;5283;48.876;8.962;2023-01-04T11:52:05;1.97;;;0.40;;
10471;SDS011;5283;48.876;8.962;2023-01-04T11:54:33;2.20;;;0.90;;
10471;SDS011;5283;48.876;8.962;2023-01-04T11:57:03;1.57;;;0.87;;
10471;SDS011;5283;48.876;8.962;2023-01-04T11:59:36;1.20;;;0.60;;
10471;SDS011;5283;48.876;8.962;2023-01-04T12:02:17;1.50;;;0.70;;
10471;SDS011;5283;48.876;8.962;2023-01-04T12:05:18;0.57;;;0.43;;
10471;SDS011;5283;48.876;8.962;2023-01-04T12:07:49;2.23;;;0.80;;
10471;SDS011;5283;48.876;8.962;2023-01-04T12:10:20;0.80;;;0.60;;
10471;SDS011;5283;48.876;8.962;2023-01-04T12:12:52;1.27;;;0.70;;
10471;SDS011;5283;48.876;8.962;2023-01-04T12:15:22;1.93;;;0.90;;
10471;SDS011;5283;48.876;8.962;2023-01-04T12:17:55;2.10;;;0.83;;
10471;SDS011;5283;48.876;8.962;2023-01-04T12:20:27;0.70;;;0.70;;
10471;SDS011;5283;48.876;8.962;2023-01-04T12:22:55;1.27;;;0.67;;
10471;SDS011;5283;48.876;8.962;2023-01-04T12:28:04;3.10;;;0.73;;
10471;SDS011;5283;48.876;8.962;2023-01-04T12:30:41;1.97;;;0.63;;
10471;SDS011;5283;48.876;8.962;2023-01-04T12:33:35;1.70;;;0.70;;
10471;SDS011;5283;48.876;8.962;2023-01-04T12:36:04;2.07;;;0.73;;
10471;SDS011;5283;48.876;8.962;2023-01-04T12:41:21;1.53;;;0.87;;
10471;SDS011;5283;48.876;8.962;2023-01-04T12:43:50;1.43;;;0.93;;
10471;SDS011;5283;48.876;8.962;2023-01-04T12:54:49;1.83;;;0.97;;
10471;SDS011;5283;48.876;8.962;2023-01-04T12:57:31;2.03;;;1.03;;
10471;SDS011;5283;48.876;8.962;2023-01-04T13:02:40;1.40;;;0.60;;
10471;SDS011;5283;48.876;8.962;2023-01-04T13:08:08;1.80;;;0.83;;
10471;SDS011;5283;48.876;8.962;2023-01-04T13:15:59;1.03;;;0.83;;
10471;SDS011;5283;48.876;8.962;2023-01-04T13:21:02;1.37;;;0.90;;
10471;SDS011;5283;48.876;8.962;2023-01-04T13:23:35;2.20;;;0.93;;
10471;SDS011;5283;48.876;8.962;2023-01-04T13:32:19;1.03;;;0.87;;
10471;SDS011;5283;48.876;8.962;2023-01-04T13:34:30;2.87;;;0.80;;
10471;SDS011;5283;48.876;8.962;2023-01-04T13:39:39;0.70;;;0.50;;
10471;SDS011;5283;48.876;8.962;2023-01-04T13:42:20;0.90;;;0.70;;
10471;SDS011;5283;48.876;8.962;2023-01-04T13:47:54;0.50;;;0.50;;
10471;SDS011;5283;48.876;8.962;2023-01-04T13:50:25;1.03;;;0.80;;
10471;SDS011;5283;48.876;8.962;2023-01-04T13:52:56;1.17;;;0.50;;
10471;SDS011;5283;48.876;8.962;2023-01-04T13:55:33;0.40;;;0.40;;
10471;SDS011;5283;48.876;8.962;2023-01-04T13:58:04;0.67;;;0.40;;
10471;SDS011;5283;48.876;8.962;2023-01-04T14:00:34;1.23;;;0.60;;
10471;SDS011;5283;48.876;8.962;2023-01-04T14:03:13;1.43;;;0.33;;
10471;SDS011;5283;48.876;8.962;2023-01-04T14:05:47;0.50;;;0.43;;
10471;SDS011;5283;48.876;8.962;2023-01-04T14:08:26;1.00;;;0.30;;
10471;SDS011;5283;48.876;8.962;2023-01-04T14:10:57;1.20;;;0.90;;
10471;SDS011;5283;48.876;8.962;2023-01-04T14:13:24;1.10;;;0.37;;
10471;SDS011;5283;48.876;8.962;2023-01-04T14:18:50;1.33;;;0.60;;
10471;SDS011;5283;48.876;8.962;2023-01-04T14:21:17;1.07;;;0.40;;
10471;SDS011;5283;48.876;8.962;2023-01-04T14:23:44;0.50;;;0.30;;
10471;SDS011;5283;48.876;8.962;2023-01-04T14:29:20;1.13;;;0.70;;
10471;SDS011;5283;48.876;8.962;2023-01-04T14:31:48;2.43;;;1.60;;
10471;SDS011;5283;48.876;8.962;2023-01-04T14:34:15;1.30;;;0.90;;
10471;SDS011;5283;48.876;8.962;2023-01-04T14:36:42;0.40;;;0.40;;
10471;SDS011;5283;48.876;8.962;2023-01-04T14:39:10;1.13;;;0.50;;
10471;SDS011;5283;48.876;8.962;2023-01-04T14:44:20;1.13;;;0.50;;
10471;SDS011;5283;48.876;8.962;2023-01-04T14:46:51;1.00;;;0.60;;
10471;SDS011;5283;48.876;8.962;2023-01-04T14:49:19;0.83;;;0.50;;
10471;SDS011;5283;48.876;8.962;2023-01-04T14:51:48;0.87;;;0.40;;
10471;SDS011;5283;48.876;8.962;2023-01-04T14:54:17;1.27;;;0.80;;
10471;SDS011;5283;48.876;8.962;2023-01-04T14:56:49;0.47;;;0.40;;
10471;SDS011;5283;48.876;8.962;2023-01-04T14:59:16;0.57;;;0.30;;
10471;SDS011;5283;48.876;8.962;2023-01-04T15:01:43;0.73;;;0.60;;
10471;SDS011;5283;48.876;8.962;2023-01-04T15:04:10;0.90;;;0.63;;
10471;SDS011;5283;48.876;8.962;2023-01-04T15:06:36;1.10;;;0.50;;
10471;SDS011;5283;48.876;8.962;2023-01-04T15:09:12;0.60;;;0.40;;
10471;SDS011;5283;48.876;8.962;2023-01-04T15:11:39;1.23;;;0.70;;
10471;SDS011;5283;48.876;8.962;2023-01-04T15:14:06;0.90;;;0.60;;
10471;SDS011;5283;48.876;8.962;2023-01-04T15:16:32;0.70;;;0.50;;
10471;SDS011;5283;48.876;8.962;2023-01-04T15:18:59;1.77;;;0.60;;
10471;SDS011;5283;48.876;8.962;2023-01-04T15:21:26;1.50;;;0.50;;
10471;SDS011;5283;48.876;8.962;2023-01-04T15:23:52;0.80;;;0.70;;
10471;SDS011;5283;48.876;8.962;2023-01-04T15:26:19;0.70;;;0.50;;
10471;SDS011;5283;48.876;8.962;2023-01-04T15:28:46;0.40;;;0.40;;
10471;SDS011;5283;48.876;8.962;2023-01-04T15:31:12;1.13;;;0.57;;
10471;SDS011;5283;48.876;8.962;2023-01-04T15:33:39;0.97;;;0.50;;
10471;SDS011;5283;48.876;8.962;2023-01-04T15:36:08;0.67;;;0.40;;
10471;SDS011;5283;48.876;8.962;2023-01-04T15:38:47;0.83;;;0.50;;
10471;SDS011;5283;48.876;8.962;2023-01-04T15:41:14;0.50;;;0.33;;
10471;SDS011;5283;48.876;8.962;2023-01-04T15:44:04;0.50;;;0.50;;
10471;SDS011;5283;48.876;8.962;2023-01-04T15:46:33;0.93;;;0.57;;
10471;SDS011;5283;48.876;8.962;2023-01-04T15:49:00;1.87;;;0.70;;
10471;SDS011;5283;48.876;8.962;2023-01-04T15:51:26;0.83;;;0.50;;
10471;SDS011;5283;48.876;8.962;2023-01-04T15:53:53;0.77;;;0.63;;
10471;SDS011;5283;48.876;8.962;2023-01-04T15:56:20;0.67;;;0.33;;
10471;SDS011;5283;48.876;8.962;2023-01-04T15:58:50;0.73;;;0.63;;
10471;SDS011;5283;48.876;8.962;2023-01-04T16:01:18;2.30;;;0.50;;
10471;SDS011;5283;48.876;8.962;2023-01-04T16:03:45;0.43;;;0.43;;
10471;SDS011;5283;48.876;8.962;2023-01-04T16:06:15;0.90;;;0.70;;
10471;SDS011;5283;48.876;8.962;2023-01-04T16:08:42;0.80;;;0.50;;
10471;SDS011;5283;48.876;8.962;2023-01-04T16:11:11;0.80;;;0.70;;
10471;SDS011;5283;48.876;8.962;2023-01-04T16:13:38;0.53;;;0.43;;
10471;SDS011;5283;48.876;8.962;2023-01-04T16:16:05;0.87;;;0.53;;
10471;SDS011;5283;48.876;8.962;2023-01-04T16:18:32;1.47;;;0.60;;
10471;SDS011;5283;48.876;8.962;2023-01-04T16:20:59;0.80;;;0.60;;
10471;SDS011;5283;48.876;8.962;2023-01-04T16:23:26;0.47;;;0.43;;
10471;SDS011;5283;48.876;8.962;2023-01-04T16:26:06;0.70;;;0.70;;
10471;SDS011;5283;48.876;8.962;2023-01-04T16:28:38;0.60;;;0.60;;
10471;SDS011;5283;48.876;8.962;2023-01-04T16:31:05;0.87;;;0.67;;
10471;SDS011;5283;48.876;8.962;2023-01-04T16:33:33;1.80;;;0.77;;
10471;SDS011;5283;48.876;8.962;2023-01-04T16:36:04;0.80;;;0.80;;
10471;SDS011;5283;48.876;8.962;2023-01-04T16:38:36;0.87;;;0.83;;
10471;SDS011;5283;48.876;8.962;2023-01-04T16:41:04;1.57;;;0.77;;
10471;SDS011;5283;48.876;8.962;2023-01-04T16:43:32;0.80;;;0.70;;
10471;SDS011;5283;48.876;8.962;2023-01-04T16:48:45;1.00;;;0.90;;
10471;SDS011;5283;48.876;8.962;2023-01-04T16:51:16;0.70;;;0.70;;
10471;SDS011;5283;48.876;8.962;2023-01-04T16:53:43;0.80;;;0.80;;
10471;SDS011;5283;48.876;8.962;2023-01-04T16:56:11;1.23;;;0.70;;
10471;SDS011;5283;48.876;8.962;2023-01-04T16:58:39;0.73;;;0.73;;
10471;SDS011;5283;48.876;8.962;2023-01-04T17:03:47;0.83;;;0.80;;
10471;SDS011;5283;48.876;8.962;2023-01-04T17:06:16;0.70;;;0.70;;
10471;SDS011;5283;48.876;8.962;2023-01-04T17:08:45;1.30;;;0.50;;
10471;SDS011;5283;48.876;8.962;2023-01-04T17:11:14;2.73;;;0.70;;
10471;SDS011;5283;48.876;8.962;2023-01-04T17:14:03;1.03;;;0.70;;
10471;SDS011;5283;48.876;8.962;2023-01-04T17:16:30;0.83;;;0.80;;
10471;SDS011;5283;48.876;8.962;2023-01-04T17:18:59;0.67;;;0.67;;
10471;SDS011;5283;48.876;8.962;2023-01-04T17:21:27;0.87;;;0.87;;